sensor_id;sensor_type;location;lat;lon;timestamp;pressure;altitude;pressure_sealevel;temperature;humidity
77725;BME280;66892;53.236;6.550;2023-06-22T00:01:52;102105.31;;;15.94;100.00
77725;BME280;66892;53.236;6.550;2023-06-22T00:04:18;102104.53;;;15.79;100.00
77725;BME280;66892;53.236;6.550;2023-06-22T00:06:44;102107.19;;;15.78;100.00
77725;BME280;66892;53.236;6.550;2023-06-22T00:09:10;102106.31;;;15.79;100.00
77725;BME280;66892;53.236;6.550;2023-06-22T00:11:37;102114.28;;;15.77;100.00
77725;BME280;66892;53.236;6.550;2023-06-22T00:14:04;102115.19;;;15.73;100.00
77725;BME280;66892;53.236;6.550;2023-06-22T00:16:31;102109.00;;;15.68;100.00
77725;BME280;66892;53.236;6.550;2023-06-22T00:18:58;102108.16;;;15.63;100.00
77725;BME280;66892;53.236;6.550;2023-06-22T00:21:26;102114.34;;;15.61;100.00
77725;BME280;66892;53.236;6.550;2023-06-22T00:23:52;102108.16;;;15.57;100.00
77725;BME280;66892;53.236;6.550;2023-06-22T00:26:18;102112.63;;;15.55;100.00
77725;BME280;66892;53.236;6.550;2023-06-22T00:28:44;102113.50;;;15.45;100.00
77725;BME280;66892;53.236;6.550;2023-06-22T00:31:12;102110.84;;;15.42;100.00
77725;BME280;66892;53.236;6.550;2023-06-22T00:33:38;102114.41;;;15.37;100.00
77725;BME280;66892;53.236;6.550;2023-06-22T00:36:05;102117.09;;;15.32;100.00
77725;BME280;66892;53.236;6.550;2023-06-22T00:38:32;102117.97;;;15.32;100.00
77725;BME280;66892;53.236;6.550;2023-06-22T00:40:58;102116.19;;;15.31;100.00
77725;BME280;66892;53.236;6.550;2023-06-22T00:43:24;102120.66;;;15.26;100.00
77725;BME280;66892;53.236;6.550;2023-06-22T00:45:50;102118.00;;;15.19;100.00
77725;BME280;66892;53.236;6.550;2023-06-22T00:48:18;102129.56;;;15.15;100.00
77725;BME280;66892;53.236;6.550;2023-06-22T00:50:44;102128.66;;;15.13;100.00
77725;BME280;66892;53.236;6.550;2023-06-22T00:53:10;102127.78;;;15.06;100.00
77725;BME280;66892;53.236;6.550;2023-06-22T00:55:39;102132.22;;;15.00;100.00
77725;BME280;66892;53.236;6.550;2023-06-22T00:58:09;102129.59;;;14.92;100.00
77725;BME280;66892;53.236;6.550;2023-06-22T01:00:39;102129.59;;;14.91;100.00
77725;BME280;66892;53.236;6.550;2023-06-22T01:03:05;102128.69;;;14.95;100.00
77725;BME280;66892;53.236;6.550;2023-06-22T01:05:37;102129.59;;;15.09;100.00
77725;BME280;66892;53.236;6.550;2023-06-22T01:08:15;102130.44;;;15.17;100.00
77725;BME280;66892;53.236;6.550;2023-06-22T01:10:44;102129.56;;;15.18;100.00
77725;BME280;66892;53.236;6.550;2023-06-22T01:13:20;102126.00;;;15.17;100.00
77725;BME280;66892;53.236;6.550;2023-06-22T01:15:52;102126.91;;;15.13;100.00
77725;BME280;66892;53.236;6.550;2023-06-22T01:18:20;102115.38;;;15.11;100.00
77725;BME280;66892;53.236;6.550;2023-06-22T01:20:53;102120.69;;;15.11;100.00
77725;BME280;66892;53.236;6.550;2023-06-22T01:23:27;102122.47;;;15.11;100.00
77725;BME280;66892;53.236;6.550;2023-06-22T01:26:02;102121.56;;;15.10;100.00
77725;BME280;66892;53.236;6.550;2023-06-22T01:28:43;102113.59;;;15.10;100.00
77725;BME280;66892;53.236;6.550;2023-06-22T01:31:10;102118.91;;;15.07;100.00
77725;BME280;66892;53.236;6.550;2023-06-22T01:33:41;102120.69;;;15.04;100.00
77725;BME280;66892;53.236;6.550;2023-06-22T01:36:09;102115.41;;;14.99;100.00
77725;BME280;66892;53.236;6.550;2023-06-22T01:38:37;102116.28;;;14.95;100.00
77725;BME280;66892;53.236;6.550;2023-06-22T01:41:04;102110.94;;;14.91;100.00
77725;BME280;66892;53.236;6.550;2023-06-22T01:43:30;102110.97;;;14.86;100.00
77725;BME280;66892;53.236;6.550;2023-06-22T01:46:01;102107.38;;;14.87;100.00
77725;BME280;66892;53.236;6.550;2023-06-22T01:48:28;102104.72;;;14.87;100.00
77725;BME280;66892;53.236;6.550;2023-06-22T01:50:55;102104.72;;;14.87;100.00
77725;BME280;66892;53.236;6.550;2023-06-22T01:53:21;102100.28;;;14.85;100.00
77725;BME280;66892;53.236;6.550;2023-06-22T01:55:47;102094.97;;;14.77;100.00
77725;BME280;66892;53.236;6.550;2023-06-22T01:58:14;102094.97;;;14.75;100.00
77725;BME280;66892;53.236;6.550;2023-06-22T02:00:44;102099.41;;;14.75;100.00
77725;BME280;66892;53.236;6.550;2023-06-22T02:03:19;102102.09;;;14.76;100.00
77725;BME280;66892;53.236;6.550;2023-06-22T02:05:48;102101.19;;;14.77;100.00
77725;BME280;66892;53.236;6.550;2023-06-22T02:08:19;102098.53;;;14.77;100.00
77725;BME280;66892;53.236;6.550;2023-06-22T02:10:48;102099.44;;;14.76;100.00
77725;BME280;66892;53.236;6.550;2023-06-22T02:13:15;102095.84;;;14.74;100.00
77725;BME280;66892;53.236;6.550;2023-06-22T02:15:42;102094.09;;;14.72;100.00
77725;BME280;66892;53.236;6.550;2023-06-22T02:18:08;102092.31;;;14.71;100.00
77725;BME280;66892;53.236;6.550;2023-06-22T02:20:37;102094.09;;;14.73;100.00
77725;BME280;66892;53.236;6.550;2023-06-22T02:23:04;102099.41;;;14.72;100.00
77725;BME280;66892;53.236;6.550;2023-06-22T02:25:31;102100.28;;;14.71;100.00
77725;BME280;66892;53.236;6.550;2023-06-22T02:27:57;102095.88;;;14.67;100.00
77725;BME280;66892;53.236;6.550;2023-06-22T02:30:23;102094.09;;;14.63;100.00
77725;BME280;66892;53.236;6.550;2023-06-22T02:32:50;102092.31;;;14.63;100.00
77725;BME280;66892;53.236;6.550;2023-06-22T02:35:24;102087.00;;;14.59;100.00
77725;BME280;66892;53.236;6.550;2023-06-22T02:37:52;102076.34;;;14.48;100.00
77725;BME280;66892;53.236;6.550;2023-06-22T02:40:18;102083.44;;;14.40;100.00
77725;BME280;66892;53.236;6.550;2023-06-22T02:42:44;102086.09;;;14.42;100.00
77725;BME280;66892;53.236;6.550;2023-06-22T02:45:10;102092.31;;;14.42;100.00
77725;BME280;66892;53.236;6.550;2023-06-22T02:47:36;102088.75;;;14.43;100.00
77725;BME280;66892;53.236;6.550;2023-06-22T02:50:03;102088.78;;;14.45;100.00
77725;BME280;66892;53.236;6.550;2023-06-22T02:52:29;102097.63;;;14.42;100.00
77725;BME280;66892;53.236;6.550;2023-06-22T02:54:56;102102.06;;;14.34;100.00
77725;BME280;66892;53.236;6.550;2023-06-22T02:57:22;102094.03;;;14.30;100.00
77725;BME280;66892;53.236;6.550;2023-06-22T02:59:48;102108.22;;;14.27;100.00
77725;BME280;66892;53.236;6.550;2023-06-22T03:02:14;102104.66;;;14.23;100.00
77725;BME280;66892;53.236;6.550;2023-06-22T03:04:40;102095.81;;;14.21;100.00
77725;BME280;66892;53.236;6.550;2023-06-22T03:07:06;102101.13;;;14.23;100.00
77725;BME280;66892;53.236;6.550;2023-06-22T03:09:32;102105.56;;;14.24;100.00
77725;BME280;66892;53.236;6.550;2023-06-22T03:12:00;102110.00;;;14.28;100.00
77725;BME280;66892;53.236;6.550;2023-06-22T03:14:28;102107.34;;;14.22;100.00
77725;BME280;66892;53.236;6.550;2023-06-22T03:16:54;102101.97;;;14.16;100.00
77725;BME280;66892;53.236;6.550;2023-06-22T03:19:20;102099.31;;;14.16;100.00
77725;BME280;66892;53.236;6.550;2023-06-22T03:21:47;102104.63;;;14.07;100.00
77725;BME280;66892;53.236;6.550;2023-06-22T03:24:13;102106.41;;;14.02;100.00
77725;BME280;66892;53.236;6.550;2023-06-22T03:26:39;102103.75;;;14.02;100.00
77725;BME280;66892;53.236;6.550;2023-06-22T03:29:07;102098.44;;;14.08;100.00
77725;BME280;66892;53.236;6.550;2023-06-22T03:31:33;102093.13;;;14.11;100.00
77725;BME280;66892;53.236;6.550;2023-06-22T03:33:59;102097.56;;;14.15;100.00
77725;BME280;66892;53.236;6.550;2023-06-22T03:36:25;102101.13;;;14.12;100.00
77725;BME280;66892;53.236;6.550;2023-06-22T03:38:51;102099.31;;;14.13;100.00
77725;BME280;66892;53.236;6.550;2023-06-22T03:41:18;102099.34;;;14.19;100.00
77725;BME280;66892;53.236;6.550;2023-06-22T03:43:44;102103.78;;;14.29;100.00
77725;BME280;66892;53.236;6.550;2023-06-22T03:46:11;102102.94;;;14.36;100.00
77725;BME280;66892;53.236;6.550;2023-06-22T03:48:37;102095.88;;;14.35;100.00
77725;BME280;66892;53.236;6.550;2023-06-22T03:51:04;102091.41;;;14.34;100.00
77725;BME280;66892;53.236;6.550;2023-06-22T03:53:30;102095.84;;;14.43;100.00
77725;BME280;66892;53.236;6.550;2023-06-22T03:55:56;102087.88;;;14.55;100.00
77725;BME280;66892;53.236;6.550;2023-06-22T03:58:22;102084.34;;;14.63;100.00
77725;BME280;66892;53.236;6.550;2023-06-22T04:00:49;102090.53;;;14.68;100.00
77725;BME280;66892;53.236;6.550;2023-06-22T04:03:17;102091.41;;;14.70;100.00
77725;BME280;66892;53.236;6.550;2023-06-22T04:05:47;102088.75;;;14.70;100.00
77725;BME280;66892;53.236;6.550;2023-06-22T04:08:14;102088.75;;;14.78;100.00
77725;BME280;66892;53.236;6.550;2023-06-22T04:10:40;102086.09;;;14.80;100.00
77725;BME280;66892;53.236;6.550;2023-06-22T04:13:07;102079.00;;;14.86;100.00
77725;BME280;66892;53.236;6.550;2023-06-22T04:15:33;102091.41;;;14.92;100.00
77725;BME280;66892;53.236;6.550;2023-06-22T04:17:59;102086.97;;;14.95;100.00
77725;BME280;66892;53.236;6.550;2023-06-22T04:20:26;102086.09;;;14.99;100.00
77725;BME280;66892;53.236;6.550;2023-06-22T04:22:53;102086.94;;;15.03;100.00
77725;BME280;66892;53.236;6.550;2023-06-22T04:25:20;102092.28;;;15.04;100.00
77725;BME280;66892;53.236;6.550;2023-06-22T04:27:46;102100.25;;;15.03;100.00
77725;BME280;66892;53.236;6.550;2023-06-22T04:30:13;102100.28;;;15.01;100.00
77725;BME280;66892;53.236;6.550;2023-06-22T04:32:42;102099.41;;;14.99;100.00
77725;BME280;66892;53.236;6.550;2023-06-22T04:35:08;102113.59;;;15.10;100.00
77725;BME280;66892;53.236;6.550;2023-06-22T04:37:36;102103.78;;;15.20;100.00
77725;BME280;66892;53.236;6.550;2023-06-22T04:40:02;102096.69;;;15.28;100.00
77725;BME280;66892;53.236;6.550;2023-06-22T04:42:30;102094.84;;;15.42;100.00
77725;BME280;66892;53.236;6.550;2023-06-22T04:44:57;102087.75;;;15.53;100.00
77725;BME280;66892;53.236;6.550;2023-06-22T04:47:23;102087.72;;;15.62;100.00
77725;BME280;66892;53.236;6.550;2023-06-22T04:49:49;102085.88;;;15.67;100.00
77725;BME280;66892;53.236;6.550;2023-06-22T04:52:16;102077.00;;;15.70;100.00
77725;BME280;66892;53.236;6.550;2023-06-22T04:54:44;102081.41;;;15.74;100.00
77725;BME280;66892;53.236;6.550;2023-06-22T04:57:14;102078.72;;;15.77;100.00
77725;BME280;66892;53.236;6.550;2023-06-22T04:59:41;102085.81;;;15.84;100.00
77725;BME280;66892;53.236;6.550;2023-06-22T05:02:08;102069.75;;;15.95;100.00
77725;BME280;66892;53.236;6.550;2023-06-22T05:04:34;102083.06;;;16.05;100.00
77725;BME280;66892;53.236;6.550;2023-06-22T05:07:06;102078.41;;;16.31;100.00
77725;BME280;66892;53.236;6.550;2023-06-22T05:09:32;102068.28;;;16.73;100.00
77725;BME280;66892;53.236;6.550;2023-06-22T05:12:02;102080.66;;;17.67;100.00
77725;BME280;66892;53.236;6.550;2023-06-22T05:14:29;102084.47;;;18.15;100.00
77725;BME280;66892;53.236;6.550;2023-06-22T05:16:55;102077.13;;;18.82;100.00
77725;BME280;66892;53.236;6.550;2023-06-22T05:19:24;102078.28;;;19.63;97.96
77725;BME280;66892;53.236;6.550;2023-06-22T05:21:51;102082.28;;;20.23;94.24
77725;BME280;66892;53.236;6.550;2023-06-22T05:24:17;102085.59;;;20.73;90.68
77725;BME280;66892;53.236;6.550;2023-06-22T05:26:43;102085.25;;;21.20;87.95
77725;BME280;66892;53.236;6.550;2023-06-22T05:29:10;102084.31;;;21.83;86.23
77725;BME280;66892;53.236;6.550;2023-06-22T05:31:36;102085.63;;;22.54;83.95
77725;BME280;66892;53.236;6.550;2023-06-22T05:34:05;102086.06;;;23.21;76.27
77725;BME280;66892;53.236;6.550;2023-06-22T05:36:32;102091.13;;;23.30;76.54
77725;BME280;66892;53.236;6.550;2023-06-22T05:38:58;102091.03;;;23.81;74.13
77725;BME280;66892;53.236;6.550;2023-06-22T05:41:24;102077.94;;;24.17;72.70
77725;BME280;66892;53.236;6.550;2023-06-22T05:43:50;102081.91;;;24.30;70.22
77725;BME280;66892;53.236;6.550;2023-06-22T05:46:18;102077.50;;;24.49;69.01
77725;BME280;66892;53.236;6.550;2023-06-22T05:48:45;102077.69;;;24.88;69.71
77725;BME280;66892;53.236;6.550;2023-06-22T05:51:11;102080.50;;;25.46;67.07
77725;BME280;66892;53.236;6.550;2023-06-22T05:53:37;102080.13;;;25.74;65.01
77725;BME280;66892;53.236;6.550;2023-06-22T05:56:03;102075.38;;;25.79;63.12
77725;BME280;66892;53.236;6.550;2023-06-22T05:58:30;102073.94;;;25.72;62.63
77725;BME280;66892;53.236;6.550;2023-06-22T06:00:56;102081.09;;;25.73;61.93
77725;BME280;66892;53.236;6.550;2023-06-22T06:03:23;102072.88;;;25.55;60.88
77725;BME280;66892;53.236;6.550;2023-06-22T06:05:49;102073.19;;;25.48;61.33
77725;BME280;66892;53.236;6.550;2023-06-22T06:08:16;102075.28;;;25.41;61.09
77725;BME280;66892;53.236;6.550;2023-06-22T06:10:42;102079.28;;;25.53;59.80
77725;BME280;66892;53.236;6.550;2023-06-22T06:13:08;102077.19;;;25.59;59.85
77725;BME280;66892;53.236;6.550;2023-06-22T06:15:34;102082.84;;;25.92;58.73
77725;BME280;66892;53.236;6.550;2023-06-22T06:18:00;102091.22;;;26.44;57.10
77725;BME280;66892;53.236;6.550;2023-06-22T06:20:29;102081.22;;;26.80;55.95
77725;BME280;66892;53.236;6.550;2023-06-22T06:22:56;102083.50;;;27.06;54.59
77725;BME280;66892;53.236;6.550;2023-06-22T06:25:22;102090.84;;;26.68;55.55
77725;BME280;66892;53.236;6.550;2023-06-22T06:27:50;102094.28;;;27.08;54.70
77725;BME280;66892;53.236;6.550;2023-06-22T06:30:17;102096.41;;;27.36;52.90
77725;BME280;66892;53.236;6.550;2023-06-22T06:32:44;102090.59;;;26.56;54.19
77725;BME280;66892;53.236;6.550;2023-06-22T06:35:12;102089.47;;;26.05;56.00
77725;BME280;66892;53.236;6.550;2023-06-22T06:37:41;102089.97;;;25.95;56.66
77725;BME280;66892;53.236;6.550;2023-06-22T06:40:08;102098.88;;;26.36;56.39
77725;BME280;66892;53.236;6.550;2023-06-22T06:42:38;102097.47;;;26.99;54.27
77725;BME280;66892;53.236;6.550;2023-06-22T06:45:06;102101.22;;;27.31;52.82
77725;BME280;66892;53.236;6.550;2023-06-22T06:47:33;102090.84;;;27.71;50.55
77725;BME280;66892;53.236;6.550;2023-06-22T06:49:59;102094.00;;;27.64;49.36
77725;BME280;66892;53.236;6.550;2023-06-22T06:52:25;102097.78;;;26.93;51.94
77725;BME280;66892;53.236;6.550;2023-06-22T06:54:53;102091.72;;;26.52;52.42
77725;BME280;66892;53.236;6.550;2023-06-22T06:57:19;102094.59;;;26.30;53.13
77725;BME280;66892;53.236;6.550;2023-06-22T06:59:46;102093.69;;;25.74;53.36
77725;BME280;66892;53.236;6.550;2023-06-22T07:02:12;102087.72;;;25.65;54.02
77725;BME280;66892;53.236;6.550;2023-06-22T07:04:38;102093.78;;;26.09;52.26
77725;BME280;66892;53.236;6.550;2023-06-22T07:07:04;102093.53;;;25.77;53.01
77725;BME280;66892;53.236;6.550;2023-06-22T07:09:31;102090.69;;;25.98;52.42
77725;BME280;66892;53.236;6.550;2023-06-22T07:11:58;102102.84;;;25.90;52.96
77725;BME280;66892;53.236;6.550;2023-06-22T07:14:24;102098.09;;;27.04;51.31
77725;BME280;66892;53.236;6.550;2023-06-22T07:16:50;102095.50;;;27.69;48.40
77725;BME280;66892;53.236;6.550;2023-06-22T07:19:24;102100.50;;;28.72;46.56
77725;BME280;66892;53.236;6.550;2023-06-22T07:21:50;102094.16;;;29.90;43.96
77725;BME280;66892;53.236;6.550;2023-06-22T07:24:16;102094.69;;;30.64;41.83
77725;BME280;66892;53.236;6.550;2023-06-22T07:26:42;102087.00;;;30.15;41.01
77725;BME280;66892;53.236;6.550;2023-06-22T07:29:13;102094.41;;;29.71;42.88
77725;BME280;66892;53.236;6.550;2023-06-22T07:31:39;102078.88;;;30.42;41.93
77725;BME280;66892;53.236;6.550;2023-06-22T07:34:06;102080.56;;;30.84;39.83
77725;BME280;66892;53.236;6.550;2023-06-22T07:36:32;102081.94;;;31.56;38.59
77725;BME280;66892;53.236;6.550;2023-06-22T07:39:00;102085.16;;;30.16;40.30
77725;BME280;66892;53.236;6.550;2023-06-22T07:41:26;102082.91;;;29.80;41.55
77725;BME280;66892;53.236;6.550;2023-06-22T07:43:52;102088.09;;;29.70;40.93
77725;BME280;66892;53.236;6.550;2023-06-22T07:46:20;102083.56;;;30.26;40.36
77725;BME280;66892;53.236;6.550;2023-06-22T07:48:46;102077.28;;;31.31;37.95
77725;BME280;66892;53.236;6.550;2023-06-22T07:51:12;102075.13;;;31.61;36.29
77725;BME280;66892;53.236;6.550;2023-06-22T07:53:39;102069.44;;;31.52;34.64
77725;BME280;66892;53.236;6.550;2023-06-22T07:56:06;102068.31;;;31.16;35.62
77725;BME280;66892;53.236;6.550;2023-06-22T07:58:33;102058.03;;;30.80;37.60
77725;BME280;66892;53.236;6.550;2023-06-22T08:00:59;102063.88;;;30.89;37.17
77725;BME280;66892;53.236;6.550;2023-06-22T08:03:26;102052.13;;;30.47;38.78
77725;BME280;66892;53.236;6.550;2023-06-22T08:05:52;102049.09;;;30.78;38.71
77725;BME280;66892;53.236;6.550;2023-06-22T08:08:18;102045.03;;;31.61;36.31
77725;BME280;66892;53.236;6.550;2023-06-22T08:10:45;102052.41;;;32.33;34.77
77725;BME280;66892;53.236;6.550;2023-06-22T08:13:11;102043.53;;;32.66;33.63
77725;BME280;66892;53.236;6.550;2023-06-22T08:15:37;102049.47;;;33.19;33.06
77725;BME280;66892;53.236;6.550;2023-06-22T08:18:03;102043.03;;;31.76;34.42
77725;BME280;66892;53.236;6.550;2023-06-22T08:20:31;102051.72;;;30.93;36.37
77725;BME280;66892;53.236;6.550;2023-06-22T08:22:57;102049.84;;;30.80;36.13
77725;BME280;66892;53.236;6.550;2023-06-22T08:25:26;102056.00;;;30.16;37.20
77725;BME280;66892;53.236;6.550;2023-06-22T08:27:52;102052.44;;;29.45;38.00
77725;BME280;66892;53.236;6.550;2023-06-22T08:30:18;102046.59;;;29.51;38.69
77725;BME280;66892;53.236;6.550;2023-06-22T08:32:44;102041.75;;;30.40;36.80
77725;BME280;66892;53.236;6.550;2023-06-22T08:35:10;102042.16;;;31.00;35.45
77725;BME280;66892;53.236;6.550;2023-06-22T08:37:38;102042.16;;;31.88;34.26
77725;BME280;66892;53.236;6.550;2023-06-22T08:40:07;102046.50;;;32.03;33.57
77725;BME280;66892;53.236;6.550;2023-06-22T08:42:35;102049.22;;;32.16;33.46
77725;BME280;66892;53.236;6.550;2023-06-22T08:45:02;102045.88;;;32.60;33.13
77725;BME280;66892;53.236;6.550;2023-06-22T08:47:28;102040.31;;;32.49;33.14
77725;BME280;66892;53.236;6.550;2023-06-22T08:49:54;102038.53;;;32.36;33.46
77725;BME280;66892;53.236;6.550;2023-06-22T08:52:20;102030.22;;;32.62;33.23
77725;BME280;66892;53.236;6.550;2023-06-22T08:54:48;102041.25;;;33.19;32.33
77725;BME280;66892;53.236;6.550;2023-06-22T08:57:14;102033.09;;;33.74;30.67
77725;BME280;66892;53.236;6.550;2023-06-22T08:59:40;102036.97;;;33.61;30.38
77725;BME280;66892;53.236;6.550;2023-06-22T09:02:06;102029.59;;;33.83;30.04
77725;BME280;66892;53.236;6.550;2023-06-22T09:04:32;102029.66;;;34.26;29.18
77725;BME280;66892;53.236;6.550;2023-06-22T09:07:03;102016.41;;;34.31;28.93
77725;BME280;66892;53.236;6.550;2023-06-22T09:09:29;102021.66;;;34.66;28.56
77725;BME280;66892;53.236;6.550;2023-06-22T09:11:56;102022.44;;;34.57;28.18
77725;BME280;66892;53.236;6.550;2023-06-22T09:14:22;102020.19;;;33.19;30.50
77725;BME280;66892;53.236;6.550;2023-06-22T09:16:48;102013.81;;;32.49;31.46
77725;BME280;66892;53.236;6.550;2023-06-22T09:19:14;102013.13;;;32.93;32.06
77725;BME280;66892;53.236;6.550;2023-06-22T09:21:40;102020.44;;;33.27;30.75
77725;BME280;66892;53.236;6.550;2023-06-22T09:24:07;102018.47;;;33.52;30.33
77725;BME280;66892;53.236;6.550;2023-06-22T09:26:34;102007.13;;;33.89;29.98
77725;BME280;66892;53.236;6.550;2023-06-22T09:29:01;102007.16;;;33.67;29.65
77725;BME280;66892;53.236;6.550;2023-06-22T09:31:27;102007.84;;;32.79;31.18
77725;BME280;66892;53.236;6.550;2023-06-22T09:33:53;102014.75;;;32.01;32.55
77725;BME280;66892;53.236;6.550;2023-06-22T09:36:20;102004.72;;;31.88;33.14
77725;BME280;66892;53.236;6.550;2023-06-22T09:38:46;101996.81;;;32.57;33.33
77725;BME280;66892;53.236;6.550;2023-06-22T09:41:13;102000.88;;;33.32;31.71
77725;BME280;66892;53.236;6.550;2023-06-22T09:43:39;102001.16;;;33.62;30.78
77725;BME280;66892;53.236;6.550;2023-06-22T09:46:06;102000.34;;;34.05;30.27
77725;BME280;66892;53.236;6.550;2023-06-22T09:48:32;101997.97;;;34.22;29.87
77725;BME280;66892;53.236;6.550;2023-06-22T09:50:58;101987.91;;;34.43;30.10
77725;BME280;66892;53.236;6.550;2023-06-22T09:53:25;102000.22;;;34.06;30.43
77725;BME280;66892;53.236;6.550;2023-06-22T09:55:51;101995.16;;;33.79;30.14
77725;BME280;66892;53.236;6.550;2023-06-22T09:58:17;101991.50;;;34.01;30.24
77725;BME280;66892;53.236;6.550;2023-06-22T10:00:43;101982.97;;;34.26;29.17
77725;BME280;66892;53.236;6.550;2023-06-22T10:03:10;101981.19;;;34.68;29.96
77725;BME280;66892;53.236;6.550;2023-06-22T10:05:36;101973.16;;;34.76;29.75
77725;BME280;66892;53.236;6.550;2023-06-22T10:08:03;101980.19;;;34.58;29.21
77725;BME280;66892;53.236;6.550;2023-06-22T10:10:29;101982.69;;;33.75;30.09
77725;BME280;66892;53.236;6.550;2023-06-22T10:12:56;101996.09;;;32.66;31.83
77725;BME280;66892;53.236;6.550;2023-06-22T10:15:23;101977.38;;;31.76;33.07
77725;BME280;66892;53.236;6.550;2023-06-22T10:17:49;101987.63;;;31.98;33.12
77725;BME280;66892;53.236;6.550;2023-06-22T10:20:17;101982.59;;;32.86;32.30
77725;BME280;66892;53.236;6.550;2023-06-22T10:22:44;101975.44;;;33.30;31.90
77725;BME280;66892;53.236;6.550;2023-06-22T10:25:12;101975.19;;;32.41;33.23
77725;BME280;66892;53.236;6.550;2023-06-22T10:27:38;101979.47;;;32.80;32.61
77725;BME280;66892;53.236;6.550;2023-06-22T10:30:08;101971.03;;;32.94;32.45
77725;BME280;66892;53.236;6.550;2023-06-22T10:32:35;101968.75;;;32.88;32.46
77725;BME280;66892;53.236;6.550;2023-06-22T10:35:02;101967.38;;;32.71;32.46
77725;BME280;66892;53.236;6.550;2023-06-22T10:37:29;101958.97;;;31.91;34.26
77725;BME280;66892;53.236;6.550;2023-06-22T10:39:55;101963.06;;;31.85;33.71
77725;BME280;66892;53.236;6.550;2023-06-22T10:42:21;101953.53;;;32.02;33.74
77725;BME280;66892;53.236;6.550;2023-06-22T10:44:47;101955.03;;;32.18;34.24
77725;BME280;66892;53.236;6.550;2023-06-22T10:47:13;101952.88;;;32.58;33.09
77725;BME280;66892;53.236;6.550;2023-06-22T10:49:40;101961.00;;;32.12;34.43
77725;BME280;66892;53.236;6.550;2023-06-22T10:52:06;101964.06;;;32.08;33.82
77725;BME280;66892;53.236;6.550;2023-06-22T10:54:35;101956.38;;;32.36;33.74
77725;BME280;66892;53.236;6.550;2023-06-22T10:57:02;101947.31;;;32.82;33.00
77725;BME280;66892;53.236;6.550;2023-06-22T10:59:28;101954.91;;;32.44;32.45
77725;BME280;66892;53.236;6.550;2023-06-22T11:01:55;101951.84;;;31.64;34.56
77725;BME280;66892;53.236;6.550;2023-06-22T11:04:21;101951.16;;;31.73;34.13
77725;BME280;66892;53.236;6.550;2023-06-22T11:06:47;101946.00;;;32.05;35.09
77725;BME280;66892;53.236;6.550;2023-06-22T11:09:14;101942.06;;;32.09;34.85
77725;BME280;66892;53.236;6.550;2023-06-22T11:11:45;101943.50;;;31.78;35.35
77725;BME280;66892;53.236;6.550;2023-06-22T11:14:11;101937.44;;;32.33;34.92
77725;BME280;66892;53.236;6.550;2023-06-22T11:16:38;101946.34;;;32.83;33.75
77725;BME280;66892;53.236;6.550;2023-06-22T11:19:05;101948.59;;;32.54;33.87
77725;BME280;66892;53.236;6.550;2023-06-22T11:21:31;101941.59;;;31.79;35.10
77725;BME280;66892;53.236;6.550;2023-06-22T11:23:58;101941.88;;;30.50;35.68
77725;BME280;66892;53.236;6.550;2023-06-22T11:26:24;101947.03;;;30.01;38.29
77725;BME280;66892;53.236;6.550;2023-06-22T11:28:54;101935.47;;;29.83;39.07
77725;BME280;66892;53.236;6.550;2023-06-22T11:31:21;101936.34;;;30.37;38.99
77725;BME280;66892;53.236;6.550;2023-06-22T11:33:47;101942.22;;;30.83;37.85
77725;BME280;66892;53.236;6.550;2023-06-22T11:36:14;101947.72;;;30.96;37.10
77725;BME280;66892;53.236;6.550;2023-06-22T11:38:41;101934.38;;;30.78;36.96
77725;BME280;66892;53.236;6.550;2023-06-22T11:41:07;101942.50;;;30.41;37.50
77725;BME280;66892;53.236;6.550;2023-06-22T11:43:34;101938.72;;;30.02;39.09
77725;BME280;66892;53.236;6.550;2023-06-22T11:46:02;101951.88;;;29.69;40.18
77725;BME280;66892;53.236;6.550;2023-06-22T11:48:29;101937.28;;;29.56;39.73
77725;BME280;66892;53.236;6.550;2023-06-22T11:50:55;101948.66;;;29.20;41.61
77725;BME280;66892;53.236;6.550;2023-06-22T11:53:21;101937.56;;;29.23;41.34
77725;BME280;66892;53.236;6.550;2023-06-22T11:55:47;101926.31;;;29.15;42.06
77725;BME280;66892;53.236;6.550;2023-06-22T11:58:14;101925.03;;;28.92;42.91
77725;BME280;66892;53.236;6.550;2023-06-22T12:00:40;101927.94;;;29.03;42.32
77725;BME280;66892;53.236;6.550;2023-06-22T12:03:08;101925.22;;;29.17;41.98
77725;BME280;66892;53.236;6.550;2023-06-22T12:05:35;101924.47;;;29.29;41.37
77725;BME280;66892;53.236;6.550;2023-06-22T12:08:01;101924.28;;;29.33;41.45
77725;BME280;66892;53.236;6.550;2023-06-22T12:10:27;101924.63;;;29.12;41.99
77725;BME280;66892;53.236;6.550;2023-06-22T12:12:56;101917.66;;;29.08;42.50
77725;BME280;66892;53.236;6.550;2023-06-22T12:15:26;101905.66;;;29.11;41.68
77725;BME280;66892;53.236;6.550;2023-06-22T12:17:52;101911.88;;;29.13;42.16
77725;BME280;66892;53.236;6.550;2023-06-22T12:20:20;101910.84;;;29.01;41.98
77725;BME280;66892;53.236;6.550;2023-06-22T12:22:46;101913.47;;;28.89;42.43
77725;BME280;66892;53.236;6.550;2023-06-22T12:25:13;101899.03;;;28.87;42.45
77725;BME280;66892;53.236;6.550;2023-06-22T12:27:39;101902.66;;;28.73;42.54
77725;BME280;66892;53.236;6.550;2023-06-22T12:30:06;101894.47;;;28.73;42.54
77725;BME280;66892;53.236;6.550;2023-06-22T12:32:32;101887.72;;;28.50;43.63
77725;BME280;66892;53.236;6.550;2023-06-22T12:34:58;101894.88;;;28.37;43.48
77725;BME280;66892;53.236;6.550;2023-06-22T12:37:26;101892.75;;;28.12;43.96
77725;BME280;66892;53.236;6.550;2023-06-22T12:39:53;101887.66;;;27.91;44.76
77725;BME280;66892;53.236;6.550;2023-06-22T12:42:20;101885.06;;;27.89;45.35
77725;BME280;66892;53.236;6.550;2023-06-22T12:44:46;101888.66;;;28.05;45.31